Time;durP1;ratioP1;P1;durP2;ratioP2;P2;SDS_P1;SDS_P2;PMS_P1;PMS_P2;Temp;Humidity;BMP_temperature;BMP_pressure;BME280_temperature;BME280_humidity;BME280_pressure;Samples;Min_cycle;Max_cycle;Signal;HPM_P1;HPM_P2
2021/04/23 00:03:52;;;;;;;1.57;1.30;;;;;;;;;;10075677;29;20498;-66
2021/04/23 00:08:51;;;;;;;6.68;2.20;;;;;;;;;;10095341;29;20102;-60
2021/04/23 00:13:49;;;;;;;4.55;1.83;;;;;;;;;;10083486;29;20462;-62
2021/04/23 00:18:47;;;;;;;2.73;1.50;;;;;;;;;;10089671;29;20102;-62
2021/04/23 00:23:45;;;;;;;4.38;2.25;;;;;;;;;;10094986;29;20122;-61
2021/04/23 00:28:42;;;;;;;7.10;1.60;;;;;;;;;;10064074;29;20063;-63
2021/04/23 00:33:40;;;;;;;6.17;1.93;;;;;;;;;;10089921;28;20064;-62
2021/04/23 00:38:38;;;;;;;10.17;2.33;;;;;;;;;;10084929;29;21236;-60
2021/04/23 00:43:37;;;;;;;3.27;2.10;;;;;;;;;;10088440;29;20032;-63
2021/04/23 00:48:36;;;;;;;3.13;1.20;;;;;;;;;;10093509;29;20048;-57
2021/04/23 00:53:37;;;;;;;4.60;2.33;;;;;;;;;;10081976;28;20087;-59
2021/04/23 00:58:35;;;;;;;4.78;1.83;;;;;;;;;;10065058;28;20067;-59
2021/04/23 01:03:33;;;;;;;4.17;1.87;;;;;;;;;;10093259;28;20126;-64
2021/04/23 01:08:30;;;;;;;6.35;1.92;;;;;;;;;;10072547;28;20046;-60
2021/04/23 01:13:31;;;;;;;6.63;1.47;;;;;;;;;;10062654;29;20077;-61
2021/04/23 01:18:28;;;;;;;5.68;2.25;;;;;;;;;;10086099;28;20123;-59
2021/04/23 01:23:26;;;;;;;3.67;1.97;;;;;;;;;;10085501;28;20192;-60
2021/04/23 01:28:23;;;;;;;6.70;2.07;;;;;;;;;;10128481;28;20047;-60
2021/04/23 01:33:21;;;;;;;3.83;2.13;;;;;;;;;;10109776;28;20110;-59
2021/04/23 01:38:19;;;;;;;9.00;3.40;;;;;;;;;;10121517;28;20035;-63
2021/04/23 01:43:17;;;;;;;3.33;1.70;;;;;;;;;;10126151;28;20637;-61
2021/04/23 01:48:16;;;;;;;5.65;2.97;;;;;;;;;;10121428;28;20050;-61
2021/04/23 01:53:15;;;;;;;8.82;2.50;;;;;;;;;;10113451;28;20035;-62
2021/04/23 01:58:18;;;;;;;5.05;2.70;;;;;;;;;;10090622;28;20070;-60
2021/04/23 02:03:16;;;;;;;3.67;1.50;;;;;;;;;;10118846;28;20119;-61
2021/04/23 02:08:15;;;;;;;5.43;2.35;;;;;;;;;;10118511;28;20043;-59
2021/04/23 02:13:13;;;;;;;3.30;1.52;;;;;;;;;;10122513;28;20457;-60
2021/04/23 02:18:11;;;;;;;6.95;1.55;;;;;;;;;;10110328;28;20035;-60
2021/04/23 02:23:09;;;;;;;6.40;2.20;;;;;;;;;;10104842;28;20050;-57
2021/04/23 02:28:08;;;;;;;2.55;1.95;;;;;;;;;;10119351;28;20051;-63
2021/04/23 02:33:07;;;;;;;3.35;1.10;;;;;;;;;;10071194;28;20058;-56
2021/04/23 02:38:05;;;;;;;5.72;1.95;;;;;;;;;;10087480;28;20139;-56
2021/04/23 02:43:05;;;;;;;2.45;0.85;;;;;;;;;;10085699;28;20047;-60
2021/04/23 02:48:03;;;;;;;10.55;2.60;;;;;;;;;;10089724;28;20158;-58
2021/04/23 02:53:00;;;;;;;9.05;2.28;;;;;;;;;;10140906;28;20066;-60
2021/04/23 02:58:06;;;;;;;7.90;1.67;;;;;;;;;;10115418;28;20508;-58
2021/04/23 03:03:05;;;;;;;5.57;2.35;;;;;;;;;;10113018;28;20043;-57
2021/04/23 03:08:03;;;;;;;2.83;1.35;;;;;;;;;;10145342;28;20054;-58
2021/04/23 03:13:14;;;;;;;5.07;2.08;;;;;;;;;;10122832;28;20445;-54
2021/04/23 03:18:13;;;;;;;2.72;0.82;;;;;;;;;;10126020;28;20039;-55
2021/04/23 03:23:10;;;;;;;4.07;1.20;;;;;;;;;;10122404;28;20114;-62
2021/04/23 03:28:08;;;;;;;4.70;1.10;;;;;;;;;;10127233;28;20118;-63
2021/04/23 03:33:07;;;;;;;9.00;1.60;;;;;;;;;;10081591;28;20054;-59
2021/04/23 03:38:04;;;;;;;;;;;;;;;;;;10081439;29;20042;-60
2021/04/23 03:43:02;;;;;;;7.68;1.52;;;;;;;;;;10092428;28;19925;-61
2021/04/23 03:47:59;;;;;;;7.23;2.13;;;;;;;;;;10087220;29;20043;-57
2021/04/23 03:52:57;;;;;;;5.77;1.43;;;;;;;;;;10083014;28;20126;-60
2021/04/23 03:57:55;;;;;;;4.05;1.38;;;;;;;;;;10136411;28;20117;-58
2021/04/23 04:02:52;;;;;;;10.20;2.27;;;;;;;;;;10121808;28;20027;-61
2021/04/23 04:07:50;;;;;;;4.33;1.60;;;;;;;;;;10128015;28;20042;-60
2021/04/23 04:12:47;;;;;;;1.87;1.50;;;;;;;;;;10089636;28;20418;-61
2021/04/23 04:17:45;;;;;;;5.03;1.17;;;;;;;;;;10084761;28;20497;-60
2021/04/23 04:22:42;;;;;;;4.90;1.70;;;;;;;;;;10081418;29;20227;-60
2021/04/23 04:27:40;;;;;;;6.53;1.57;;;;;;;;;;10091591;28;20027;-61
2021/04/23 04:32:38;;;;;;;13.80;2.23;;;;;;;;;;10067825;28;20032;-59
2021/04/23 04:37:35;;;;;;;4.10;1.47;;;;;;;;;;10092662;28;20016;-59
2021/04/23 04:42:33;;;;;;;10.47;2.33;;;;;;;;;;10072050;29;20078;-61
2021/04/23 04:47:32;;;;;;;5.25;2.17;;;;;;;;;;10083800;29;20108;-62
2021/04/23 04:52:29;;;;;;;4.55;1.70;;;;;;;;;;10086059;28;20082;-60
2021/04/23 04:57:26;;;;;;;5.33;1.17;;;;;;;;;;10076748;29;20135;-63
2021/04/23 05:02:24;;;;;;;6.03;1.93;;;;;;;;;;10080793;28;20036;-64
2021/04/23 05:07:21;;;;;;;12.47;2.17;;;;;;;;;;10092146;28;20149;-65
2021/04/23 05:12:19;;;;;;;12.00;2.43;;;;;;;;;;10059317;29;20102;-62
2021/04/23 05:17:16;;;;;;;5.37;1.33;;;;;;;;;;10069422;28;20047;-60
2021/04/23 05:22:14;;;;;;;5.23;1.30;;;;;;;;;;10081145;28;20036;-62
2021/04/23 05:27:11;;;;;;;6.77;1.77;;;;;;;;;;10079240;28;20031;-63
2021/04/23 05:32:09;;;;;;;7.13;1.43;;;;;;;;;;10054564;28;20057;-60
2021/04/23 05:37:09;;;;;;;3.23;1.40;;;;;;;;;;10069016;29;20047;-61
2021/04/23 05:42:07;;;;;;;7.28;2.20;;;;;;;;;;10086097;28;20058;-63
2021/04/23 05:47:07;;;;;;;2.80;1.67;;;;;;;;;;10093770;28;20032;-64
2021/04/23 05:52:05;;;;;;;9.27;2.10;;;;;;;;;;10081779;29;20079;-63
2021/04/23 05:57:03;;;;;;;5.80;1.50;;;;;;;;;;10069366;29;20039;-63
2021/04/23 06:02:01;;;;;;;5.35;1.42;;;;;;;;;;10081925;28;20039;-64
2021/04/23 06:06:58;;;;;;;5.90;1.73;;;;;;;;;;10075410;28;20417;-63
2021/04/23 06:11:56;;;;;;;5.37;1.63;;;;;;;;;;10076909;28;20031;-60
2021/04/23 06:16:54;;;;;;;8.67;1.67;;;;;;;;;;10070944;28;20059;-60
2021/04/23 06:21:52;;;;;;;7.70;1.88;;;;;;;;;;10105134;28;20032;-63
2021/04/23 06:26:49;;;;;;;9.23;1.63;;;;;;;;;;10092164;29;20032;-61
2021/04/23 06:31:47;;;;;;;5.70;1.63;;;;;;;;;;10078589;28;20048;-62
2021/04/23 06:36:44;;;;;;;6.33;1.40;;;;;;;;;;10084454;28;20032;-61
2021/04/23 06:41:42;;;;;;;7.53;1.40;;;;;;;;;;10069985;29;20040;-64
2021/04/23 06:46:39;;;;;;;4.23;1.43;;;;;;;;;;10077901;29;20123;-63
2021/04/23 06:51:37;;;;;;;4.37;1.30;;;;;;;;;;10088091;28;20036;-63
2021/04/23 06:56:34;;;;;;;5.97;1.50;;;;;;;;;;10087282;29;20028;-63
2021/04/23 07:01:32;;;;;;;6.07;1.73;;;;;;;;;;10089137;29;20127;-62
2021/04/23 07:06:29;;;;;;;8.53;1.20;;;;;;;;;;10084691;28;20044;-63
2021/04/23 07:11:26;;;;;;;12.20;1.70;;;;;;;;;;10090167;28;20506;-63
2021/04/23 07:16:24;;;;;;;14.50;2.07;;;;;;;;;;10086068;28;20032;-61
2021/04/23 07:21:21;;;;;;;6.97;1.57;;;;;;;;;;10088599;28;20028;-67
2021/04/23 07:26:19;;;;;;;5.27;1.73;;;;;;;;;;10076622;29;20040;-64
2021/04/23 07:31:16;;;;;;;6.77;1.30;;;;;;;;;;10083749;28;20519;-64
2021/04/23 07:36:13;;;;;;;4.13;1.83;;;;;;;;;;10116395;28;20039;-64
2021/04/23 07:41:12;;;;;;;7.13;1.30;;;;;;;;;;10089290;28;20131;-63
2021/04/23 07:46:10;;;;;;;9.10;1.52;;;;;;;;;;10076642;28;20028;-65
2021/04/23 07:51:07;;;;;;;4.60;0.83;;;;;;;;;;10076069;29;20332;-63
2021/04/23 07:56:05;;;;;;;7.97;2.27;;;;;;;;;;10073305;29;20036;-64
2021/04/23 08:01:02;;;;;;;6.23;1.20;;;;;;;;;;10079037;29;20039;-59
2021/04/23 08:06:00;;;;;;;4.77;1.20;;;;;;;;;;10073748;29;20036;-61
2021/04/23 08:10:57;;;;;;;8.03;1.93;;;;;;;;;;10064909;28;20036;-61
2021/04/23 08:15:54;;;;;;;5.13;1.53;;;;;;;;;;10081565;29;20152;-61
2021/04/23 08:20:52;;;;;;;4.33;0.97;;;;;;;;;;10070158;29;20122;-61
2021/04/23 08:25:52;;;;;;;10.67;1.17;;;;;;;;;;10076867;29;20039;-64
2021/04/23 08:30:50;;;;;;;2.67;0.60;;;;;;;;;;10092759;28;20519;-62
2021/04/23 08:35:47;;;;;;;8.60;1.70;;;;;;;;;;10112981;28;20054;-62
2021/04/23 08:40:44;;;;;;;8.67;1.40;;;;;;;;;;10110977;28;20078;-61
2021/04/23 08:45:43;;;;;;;6.00;1.30;;;;;;;;;;10115381;28;20039;-65
2021/04/23 08:50:41;;;;;;;4.47;1.33;;;;;;;;;;10071424;29;20051;-57
2021/04/23 08:55:39;;;;;;;6.20;0.93;;;;;;;;;;10075304;28;20049;-60
2021/04/23 09:00:36;;;;;;;7.57;1.60;;;;;;;;;;10080720;28;20046;-60
2021/04/23 09:05:34;;;;;;;6.07;1.23;;;;;;;;;;10073254;28;20288;-62
2021/04/23 09:10:32;;;;;;;5.27;1.17;;;;;;;;;;10076504;28;20032;-63
2021/04/23 09:15:29;;;;;;;5.20;1.23;;;;;;;;;;10074764;28;20075;-63
2021/04/23 09:20:27;;;;;;;8.30;1.27;;;;;;;;;;10066060;28;20071;-66
2021/04/23 09:25:26;;;;;;;2.80;1.10;;;;;;;;;;10071398;28;20565;-62
2021/04/23 09:30:25;;;;;;;2.67;0.77;;;;;;;;;;10077184;28;20043;-64
2021/04/23 09:35:22;;;;;;;4.72;1.40;;;;;;;;;;10076888;28;20217;-63
2021/04/23 09:40:20;;;;;;;4.63;1.37;;;;;;;;;;10079707;29;20476;-62
2021/04/23 09:45:18;;;;;;;3.03;1.20;;;;;;;;;;10082526;28;20103;-59
2021/04/23 09:50:15;;;;;;;;;;;;;;;;;;10082428;29;20119;-61
2021/04/23 09:55:13;;;;;;;3.38;0.63;;;;;;;;;;10087538;28;20001;-62
2021/04/23 10:00:11;;;;;;;4.38;0.77;;;;;;;;;;10090858;28;20039;-64
2021/04/23 10:05:09;;;;;;;9.03;1.10;;;;;;;;;;10117790;28;20055;-62
2021/04/23 10:10:10;;;;;;;5.53;0.77;;;;;;;;;;10115640;28;20275;-61
2021/04/23 10:15:12;;;;;;;5.28;1.33;;;;;;;;;;10127927;28;20027;-67
2021/04/23 10:20:11;;;;;;;2.97;0.45;;;;;;;;;;10134702;28;20035;-62
2021/04/23 10:25:09;;;;;;;2.83;1.00;;;;;;;;;;10144157;28;20408;-62
2021/04/23 10:30:08;;;;;;;2.65;0.65;;;;;;;;;;10121081;28;20040;-62
2021/04/23 10:35:06;;;;;;;3.45;1.00;;;;;;;;;;10129868;28;20070;-62
2021/04/23 10:40:04;;;;;;;3.60;0.68;;;;;;;;;;10152849;28;20111;-60
2021/04/23 10:45:03;;;;;;;5.25;1.08;;;;;;;;;;10119582;28;20583;-61
2021/04/23 10:50:07;;;;;;;9.20;1.23;;;;;;;;;;10131912;28;20035;-62
2021/04/23 10:55:07;;;;;;;4.28;0.55;;;;;;;;;;10123475;28;20081;-62
2021/04/23 11:00:23;;;;;;;2.30;1.08;;;;;;;;;;10136903;28;20413;-62
2021/04/23 11:05:38;;;;;;;2.75;0.80;;;;;;;;;;10137677;28;20046;-64
2021/04/23 11:10:54;;;;;;;3.30;0.88;;;;;;;;;;10134647;28;20059;-62
2021/04/23 11:16:10;;;;;;;2.55;1.27;;;;;;;;;;10135969;28;20122;-63
2021/04/23 11:21:26;;;;;;;0.30;0.30;;;;;;;;;;10128350;28;20043;-62
2021/04/23 11:26:43;;;;;;;5.97;1.08;;;;;;;;;;10131258;28;20058;-63
2021/04/23 11:32:07;;;;;;;1.63;0.68;;;;;;;;;;10127592;28;20370;-60
2021/04/23 11:37:09;;;;;;;7.22;0.93;;;;;;;;;;10101825;28;20047;-63
2021/04/23 11:42:25;;;;;;;3.90;0.60;;;;;;;;;;10087160;28;20747;-63
2021/04/23 11:47:26;;;;;;;6.25;0.88;;;;;;;;;;10082676;29;20043;-63
2021/04/23 11:52:27;;;;;;;8.70;2.25;;;;;;;;;;10073569;29;20079;-62
2021/04/23 11:57:29;;;;;;;2.75;0.93;;;;;;;;;;10097649;28;20449;-64
2021/04/23 12:02:39;;;;;;;5.47;0.90;;;;;;;;;;10082014;29;20039;-62
2021/04/23 12:07:41;;;;;;;2.03;0.57;;;;;;;;;;10090400;29;20095;-63
2021/04/23 12:12:39;;;;;;;7.28;1.05;;;;;;;;;;10125419;28;20063;-63
2021/04/23 12:17:40;;;;;;;8.35;1.27;;;;;;;;;;10121344;28;20060;-61
2021/04/23 12:22:38;;;;;;;4.40;0.60;;;;;;;;;;10116919;28;20055;-61
2021/04/23 12:27:36;;;;;;;1.35;0.77;;;;;;;;;;10133376;28;20086;-64
2021/04/23 12:32:33;;;;;;;6.90;1.63;;;;;;;;;;10110846;28;20039;-62
2021/04/23 12:37:31;;;;;;;3.80;1.13;;;;;;;;;;10130927;28;20043;-64
2021/04/23 12:42:28;;;;;;;1.60;0.47;;;;;;;;;;10114901;28;20039;-62
2021/04/23 12:47:26;;;;;;;7.30;1.83;;;;;;;;;;10120493;28;20035;-63
2021/04/23 12:52:24;;;;;;;6.28;1.10;;;;;;;;;;10129086;28;20042;-63
2021/04/23 12:57:26;;;;;;;94.22;30.63;;;;;;;;;;10109384;28;20035;-67
2021/04/23 13:02:24;;;;;;;296.63;135.23;;;;;;;;;;10120640;28;20058;-62
2021/04/23 13:07:21;;;;;;;;;;;;;;;;;;10109614;28;20039;-67
2021/04/23 13:12:20;;;;;;;180.52;74.85;;;;;;;;;;10125259;28;19922;-63
2021/04/23 13:17:18;;;;;;;124.10;58.40;;;;;;;;;;10133556;28;20412;-60
2021/04/23 13:22:19;;;;;;;109.33;49.00;;;;;;;;;;10099873;28;20054;-61
2021/04/23 13:27:31;;;;;;;67.25;28.60;;;;;;;;;;10130488;28;20031;-64
2021/04/23 13:32:49;;;;;;;60.03;28.48;;;;;;;;;;10120576;28;20042;-64
2021/04/23 13:37:46;;;;;;;46.78;21.92;;;;;;;;;;10123973;28;20489;-62
2021/04/23 13:42:44;;;;;;;47.83;19.67;;;;;;;;;;10129820;28;20115;-63
2021/04/23 13:47:42;;;;;;;25.07;11.33;;;;;;;;;;10120713;28;20065;-62
2021/04/23 13:52:39;;;;;;;;;;;;;;;;;;10113747;28;20019;-60
2021/04/23 13:57:37;;;;;;;19.67;9.93;;;;;;;;;;10113965;28;19969;-65
2021/04/23 14:02:34;;;;;;;13.48;3.33;;;;;;;;;;10119972;28;20496;-62
2021/04/23 14:07:32;;;;;;;8.87;3.27;;;;;;;;;;10065759;28;20474;-62
2021/04/23 14:12:31;;;;;;;15.10;3.70;;;;;;;;;;10137382;28;20032;-63
2021/04/23 14:17:30;;;;;;;13.02;3.75;;;;;;;;;;10058179;29;20134;-65
2021/04/23 14:22:27;;;;;;;10.15;1.98;;;;;;;;;;10052609;29;20684;-61
2021/04/23 14:27:25;;;;;;;4.83;1.80;;;;;;;;;;10088605;29;20249;-63
2021/04/23 14:32:22;;;;;;;1.47;1.07;;;;;;;;;;10089008;29;20039;-62
2021/04/23 14:37:22;;;;;;;3.43;1.53;;;;;;;;;;10094934;29;20036;-66
2021/04/23 14:42:19;;;;;;;5.30;1.77;;;;;;;;;;10065797;29;20492;-64
2021/04/23 14:47:17;;;;;;;5.97;2.10;;;;;;;;;;10095605;29;20132;-62
2021/04/23 14:52:19;;;;;;;5.38;1.90;;;;;;;;;;10091217;29;20087;-64
2021/04/23 14:57:18;;;;;;;2.58;1.23;;;;;;;;;;10075958;29;20079;-62
2021/04/23 15:02:15;;;;;;;7.20;2.35;;;;;;;;;;10088212;29;20413;-61
2021/04/23 15:07:13;;;;;;;9.27;3.30;;;;;;;;;;10090153;28;20361;-62
2021/04/23 15:12:10;;;;;;;9.40;2.03;;;;;;;;;;10081374;29;20036;-62
2021/04/23 15:17:07;;;;;;;8.53;2.50;;;;;;;;;;10091701;29;20047;-64
2021/04/23 15:22:05;;;;;;;4.73;1.93;;;;;;;;;;10087129;28;20188;-66
2021/04/23 15:27:02;;;;;;;4.80;1.23;;;;;;;;;;10071019;29;20047;-63
2021/04/23 15:32:00;;;;;;;4.97;1.27;;;;;;;;;;10086730;29;20047;-65
2021/04/23 15:36:57;;;;;;;6.50;1.33;;;;;;;;;;10113240;28;20047;-63
2021/04/23 15:41:55;;;;;;;6.83;1.07;;;;;;;;;;10121813;28;20608;-64
2021/04/23 15:46:53;;;;;;;3.83;1.38;;;;;;;;;;10084709;28;20040;-64
2021/04/23 15:51:50;;;;;;;1.83;1.13;;;;;;;;;;10111358;28;20024;-64
2021/04/23 15:56:47;;;;;;;3.10;0.47;;;;;;;;;;10123162;28;20086;-62
2021/04/23 16:01:45;;;;;;;9.53;2.17;;;;;;;;;;10125937;28;20047;-65
2021/04/23 16:06:42;;;;;;;3.17;1.00;;;;;;;;;;10095641;28;20038;-61
2021/04/23 16:11:40;;;;;;;1.77;0.83;;;;;;;;;;10094777;29;20045;-64
2021/04/23 16:16:37;;;;;;;4.37;1.30;;;;;;;;;;10085404;29;20039;-64
2021/04/23 16:21:35;;;;;;;9.00;1.27;;;;;;;;;;10080757;29;20031;-63
2021/04/23 16:26:32;;;;;;;3.60;1.17;;;;;;;;;;10098129;29;20040;-60
2021/04/23 16:31:29;;;;;;;2.20;1.03;;;;;;;;;;10082993;29;20040;-63
2021/04/23 16:36:27;;;;;;;5.43;1.20;;;;;;;;;;10075897;28;20039;-64
2021/04/23 16:41:26;;;;;;;8.47;1.90;;;;;;;;;;10085236;29;20035;-63
2021/04/23 16:46:24;;;;;;;4.55;1.08;;;;;;;;;;10085251;28;20126;-60
2021/04/23 16:51:21;;;;;;;5.47;1.17;;;;;;;;;;10080300;29;20118;-67
2021/04/23 16:56:19;;;;;;;2.97;0.97;;;;;;;;;;10081395;29;20408;-61
2021/04/23 17:01:16;;;;;;;5.80;1.57;;;;;;;;;;10079267;28;20046;-65
2021/04/23 17:06:13;;;;;;;10.13;1.63;;;;;;;;;;10077300;28;20043;-63
2021/04/23 17:11:11;;;;;;;7.20;2.07;;;;;;;;;;10091568;28;20587;-66
2021/04/23 17:16:08;;;;;;;4.20;1.67;;;;;;;;;;10059589;29;20409;-62
2021/04/23 17:21:06;;;;;;;4.10;1.23;;;;;;;;;;10071967;28;20501;-67
2021/04/23 17:26:04;;;;;;;;;;;;;;;;;;10063711;29;20032;-61
2021/04/23 17:31:01;;;;;;;2.47;1.15;;;;;;;;;;10061150;28;19919;-64
2021/04/23 17:35:59;;;;;;;4.47;1.60;;;;;;;;;;10090983;28;20044;-63
2021/04/23 17:40:56;;;;;;;7.53;3.10;;;;;;;;;;10073795;29;20032;-62
2021/04/23 17:45:54;;;;;;;5.07;1.80;;;;;;;;;;10089470;28;20267;-63
2021/04/23 17:50:51;;;;;;;3.90;1.90;;;;;;;;;;10081538;28;20044;-64
2021/04/23 17:55:49;;;;;;;4.43;1.97;;;;;;;;;;10073257;29;20723;-65
2021/04/23 18:00:46;;;;;;;3.22;1.75;;;;;;;;;;10085584;29;20032;-63
2021/04/23 18:05:44;;;;;;;10.43;3.03;;;;;;;;;;10085187;28;20040;-64
2021/04/23 18:10:41;;;;;;;6.50;2.37;;;;;;;;;;10070982;28;20087;-64
2021/04/23 18:15:39;;;;;;;5.80;2.83;;;;;;;;;;10071869;28;20115;-65
2021/04/23 18:20:36;;;;;;;9.70;4.53;;;;;;;;;;10093199;28;20476;-62
2021/04/23 18:25:34;;;;;;;5.57;1.67;;;;;;;;;;10125029;28;20035;-63
2021/04/23 18:30:32;;;;;;;17.53;3.93;;;;;;;;;;10098122;28;20036;-64
2021/04/23 18:35:30;;;;;;;4.03;2.20;;;;;;;;;;10085930;28;20123;-64
2021/04/23 18:40:27;;;;;;;7.97;2.87;;;;;;;;;;10092514;28;20118;-60
2021/04/23 18:45:25;;;;;;;7.13;2.83;;;;;;;;;;10081629;28;20043;-62
2021/04/23 18:50:23;;;;;;;7.82;2.85;;;;;;;;;;10083965;28;20043;-62
2021/04/23 18:55:21;;;;;;;7.17;3.43;;;;;;;;;;10066546;29;20032;-64
2021/04/23 19:00:20;;;;;;;4.20;3.23;;;;;;;;;;10084847;28;20438;-63
2021/04/23 19:05:20;;;;;;;6.50;4.03;;;;;;;;;;10085696;28;20051;-63
2021/04/23 19:10:18;;;;;;;6.90;3.28;;;;;;;;;;10094230;28;20126;-63
2021/04/23 19:15:15;;;;;;;7.38;4.03;;;;;;;;;;10085138;28;20138;-62
2021/04/23 19:20:14;;;;;;;8.83;3.60;;;;;;;;;;10080234;29;20528;-62
2021/04/23 19:25:13;;;;;;;11.02;3.13;;;;;;;;;;10076531;28;20071;-62
2021/04/23 19:30:12;;;;;;;6.03;2.80;;;;;;;;;;10083570;28;20071;-66
2021/04/23 19:35:11;;;;;;;14.65;3.20;;;;;;;;;;10092566;28;20528;-61
2021/04/23 19:40:08;;;;;;;;;;;;;;;;;;10076090;28;20451;-61
2021/04/23 19:45:06;;;;;;;3.45;2.08;;;;;;;;;;10076763;29;19926;-62
2021/04/23 19:50:04;;;;;;;11.02;3.47;;;;;;;;;;10071194;29;20043;-63
2021/04/23 19:55:02;;;;;;;11.57;4.45;;;;;;;;;;10072849;28;20099;-61
2021/04/23 20:00:00;;;;;;;6.97;3.05;;;;;;;;;;10081439;28;20040;-65
2021/04/23 20:04:57;;;;;;;8.00;2.60;;;;;;;;;;10078925;28;20044;-60
2021/04/23 20:09:55;;;;;;;4.47;3.13;;;;;;;;;;10079782;28;20047;-62
2021/04/23 20:14:53;;;;;;;8.30;2.27;;;;;;;;;;10083418;28;20063;-60
2021/04/23 20:19:50;;;;;;;6.55;2.45;;;;;;;;;;10080503;28;20406;-63
2021/04/23 20:24:48;;;;;;;11.33;3.87;;;;;;;;;;10070172;28;20044;-63
2021/04/23 20:29:45;;;;;;;6.13;2.70;;;;;;;;;;10086398;28;20032;-62
2021/04/23 20:34:42;;;;;;;5.73;2.63;;;;;;;;;;10100221;28;20096;-61
2021/04/23 20:39:40;;;;;;;3.73;1.70;;;;;;;;;;10067743;28;20274;-61
2021/04/23 20:44:37;;;;;;;4.23;1.70;;;;;;;;;;10080526;28;20032;-62
2021/04/23 20:49:35;;;;;;;4.57;1.17;;;;;;;;;;10073005;29;20031;-63
2021/04/23 20:54:32;;;;;;;9.50;1.67;;;;;;;;;;10060152;28;20031;-61
2021/04/23 20:59:30;;;;;;;2.83;0.80;;;;;;;;;;10071535;28;20024;-60
2021/04/23 21:04:27;;;;;;;4.00;1.43;;;;;;;;;;10086477;28;20040;-63
2021/04/23 21:09:25;;;;;;;2.97;1.40;;;;;;;;;;10077044;28;20123;-63
2021/04/23 21:14:22;;;;;;;3.57;2.00;;;;;;;;;;10070060;28;20042;-64
2021/04/23 21:19:19;;;;;;;2.47;0.93;;;;;;;;;;10072830;28;20039;-62
2021/04/23 21:24:18;;;;;;;5.40;1.63;;;;;;;;;;10106330;28;20058;-66
2021/04/23 21:29:16;;;;;;;1.30;1.10;;;;;;;;;;10075956;28;20126;-62
2021/04/23 21:34:18;;;;;;;3.73;1.53;;;;;;;;;;10077316;28;20103;-62
2021/04/23 21:39:16;;;;;;;4.00;1.10;;;;;;;;;;10071900;28;20035;-63
2021/04/23 21:44:13;;;;;;;1.80;1.43;;;;;;;;;;10084024;28;20043;-63
2021/04/23 21:49:11;;;;;;;2.70;1.37;;;;;;;;;;10079014;28;20363;-60
2021/04/23 21:54:08;;;;;;;3.07;1.50;;;;;;;;;;10095956;28;20121;-62
2021/04/23 21:59:06;;;;;;;4.63;1.37;;;;;;;;;;10094529;28;20046;-65
2021/04/23 22:04:03;;;;;;;2.50;0.73;;;;;;;;;;10083395;28;20059;-62
2021/04/23 22:09:01;;;;;;;2.33;1.40;;;;;;;;;;10073183;28;20031;-62
2021/04/23 22:13:58;;;;;;;1.77;1.10;;;;;;;;;;10088566;28;20135;-59
2021/04/23 22:18:57;;;;;;;2.17;1.27;;;;;;;;;;10094500;28;20488;-63
2021/04/23 22:23:54;;;;;;;4.18;1.38;;;;;;;;;;10115027;28;20067;-62
2021/04/23 22:28:52;;;;;;;6.27;1.23;;;;;;;;;;10133734;28;20063;-60
2021/04/23 22:33:49;;;;;;;5.47;1.60;;;;;;;;;;10133515;28;20036;-62
2021/04/23 22:38:47;;;;;;;3.00;0.73;;;;;;;;;;10125952;28;20031;-66
2021/04/23 22:43:44;;;;;;;3.70;1.13;;;;;;;;;;10112647;28;20098;-58
2021/04/23 22:48:42;;;;;;;1.80;0.90;;;;;;;;;;10139221;28;20150;-60
2021/04/23 22:53:39;;;;;;;2.33;1.10;;;;;;;;;;10127689;28;20677;-61
2021/04/23 22:58:36;;;;;;;3.63;1.07;;;;;;;;;;10131004;28;20118;-61
2021/04/23 23:03:34;;;;;;;4.13;1.53;;;;;;;;;;10114820;28;20428;-65
2021/04/23 23:08:32;;;;;;;0.70;0.70;;;;;;;;;;10096031;28;20083;-62
2021/04/23 23:13:29;;;;;;;4.30;1.07;;;;;;;;;;10086767;28;20036;-62
2021/04/23 23:18:27;;;;;;;3.40;0.80;;;;;;;;;;10070060;28;20424;-64
2021/04/23 23:23:24;;;;;;;6.37;1.37;;;;;;;;;;10085492;29;20050;-62
2021/04/23 23:28:21;;;;;;;4.40;1.53;;;;;;;;;;10072996;28;20031;-63
2021/04/23 23:33:20;;;;;;;4.10;1.45;;;;;;;;;;10107494;28;20142;-60
2021/04/23 23:38:18;;;;;;;4.00;0.90;;;;;;;;;;10127245;28;20032;-61
2021/04/23 23:43:15;;;;;;;5.80;1.60;;;;;;;;;;10118930;28;20031;-62
2021/04/23 23:48:12;;;;;;;6.10;1.67;;;;;;;;;;10122094;28;20169;-60
2021/04/23 23:53:10;;;;;;;0.40;0.40;;;;;;;;;;10133502;28;20046;-60
2021/04/23 23:58:07;;;;;;;7.43;1.70;;;;;;;;;;10077626;29;20477;-60
